sensor_id;sensor_type;location;lat;lon;timestamp;temperature;humidity
21950;DHT22;11139;51.284;7.226;2022-07-10T00:00:36;18.80;94.20
21950;DHT22;11139;51.284;7.226;2022-07-10T00:03:03;18.80;94.10
21950;DHT22;11139;51.284;7.226;2022-07-10T00:05:32;18.80;94.20
21950;DHT22;11139;51.284;7.226;2022-07-10T00:07:59;18.80;94.20
21950;DHT22;11139;51.284;7.226;2022-07-10T00:10:25;18.80;94.20
21950;DHT22;11139;51.284;7.226;2022-07-10T00:15:35;18.70;94.20
21950;DHT22;11139;51.284;7.226;2022-07-10T00:18:19;18.70;94.10
21950;DHT22;11139;51.284;7.226;2022-07-10T00:21:09;18.70;94.10
21950;DHT22;11139;51.284;7.226;2022-07-10T00:23:51;18.70;94.10
21950;DHT22;11139;51.284;7.226;2022-07-10T00:26:43;18.70;94.10
21950;DHT22;11139;51.284;7.226;2022-07-10T00:29:15;18.70;94.10
21950;DHT22;11139;51.284;7.226;2022-07-10T00:31:44;18.70;94.10
21950;DHT22;11139;51.284;7.226;2022-07-10T00:34:12;18.70;94.00
21950;DHT22;11139;51.284;7.226;2022-07-10T00:36:47;18.70;94.00
21950;DHT22;11139;51.284;7.226;2022-07-10T00:39:15;18.70;94.00
21950;DHT22;11139;51.284;7.226;2022-07-10T00:44:55;18.70;94.00
21950;DHT22;11139;51.284;7.226;2022-07-10T00:47:46;18.70;94.00
21950;DHT22;11139;51.284;7.226;2022-07-10T00:50:21;18.60;93.70
21950;DHT22;11139;51.284;7.226;2022-07-10T00:52:56;18.60;93.90
21950;DHT22;11139;51.284;7.226;2022-07-10T00:55:37;18.60;93.60
21950;DHT22;11139;51.284;7.226;2022-07-10T00:58:23;18.60;93.60
21950;DHT22;11139;51.284;7.226;2022-07-10T01:00:56;18.60;93.60
21950;DHT22;11139;51.284;7.226;2022-07-10T01:03:52;18.60;93.70
21950;DHT22;11139;51.284;7.226;2022-07-10T01:09:35;18.60;93.70
21950;DHT22;11139;51.284;7.226;2022-07-10T01:18:30;18.50;93.70
21950;DHT22;11139;51.284;7.226;2022-07-10T01:21:06;18.50;93.70
21950;DHT22;11139;51.284;7.226;2022-07-10T01:23:54;18.50;93.70
21950;DHT22;11139;51.284;7.226;2022-07-10T01:35:52;18.50;93.70
21950;DHT22;11139;51.284;7.226;2022-07-10T01:38:43;18.50;93.70
21950;DHT22;11139;51.284;7.226;2022-07-10T01:41:25;18.50;93.80
21950;DHT22;11139;51.284;7.226;2022-07-10T01:44:13;18.50;93.70
21950;DHT22;11139;51.284;7.226;2022-07-10T01:49:35;18.40;93.70
21950;DHT22;11139;51.284;7.226;2022-07-10T01:52:22;18.40;93.80
21950;DHT22;11139;51.284;7.226;2022-07-10T01:54:55;18.40;93.80
21950;DHT22;11139;51.284;7.226;2022-07-10T01:57:32;18.40;93.80
21950;DHT22;11139;51.284;7.226;2022-07-10T02:00:33;18.40;93.80
21950;DHT22;11139;51.284;7.226;2022-07-10T02:03:33;18.40;93.80
21950;DHT22;11139;51.284;7.226;2022-07-10T02:06:30;18.40;93.80
21950;DHT22;11139;51.284;7.226;2022-07-10T02:09:11;18.40;93.80
21950;DHT22;11139;51.284;7.226;2022-07-10T02:11:46;18.40;93.80
21950;DHT22;11139;51.284;7.226;2022-07-10T02:14:44;18.40;93.90
21950;DHT22;11139;51.284;7.226;2022-07-10T02:17:34;18.30;93.80
21950;DHT22;11139;51.284;7.226;2022-07-10T02:20:19;18.40;93.90
21950;DHT22;11139;51.284;7.226;2022-07-10T02:23:17;18.30;93.70
21950;DHT22;11139;51.284;7.226;2022-07-10T02:25:50;18.30;93.80
21950;DHT22;11139;51.284;7.226;2022-07-10T02:28:34;18.30;93.80
21950;DHT22;11139;51.284;7.226;2022-07-10T02:31:02;18.30;93.80
21950;DHT22;11139;51.284;7.226;2022-07-10T02:33:37;18.30;93.70
21950;DHT22;11139;51.284;7.226;2022-07-10T02:36:17;18.30;93.70
21950;DHT22;11139;51.284;7.226;2022-07-10T02:39:01;18.30;93.80
21950;DHT22;11139;51.284;7.226;2022-07-10T02:41:30;18.30;93.80
21950;DHT22;11139;51.284;7.226;2022-07-10T02:44:07;18.20;93.80
21950;DHT22;11139;51.284;7.226;2022-07-10T02:46:54;18.30;93.80
21950;DHT22;11139;51.284;7.226;2022-07-10T02:49:26;18.20;93.70
21950;DHT22;11139;51.284;7.226;2022-07-10T02:58:02;18.20;93.80
21950;DHT22;11139;51.284;7.226;2022-07-10T03:03:27;18.20;93.80
21950;DHT22;11139;51.284;7.226;2022-07-10T03:05:53;18.20;93.80
21950;DHT22;11139;51.284;7.226;2022-07-10T03:08:21;18.20;93.70
21950;DHT22;11139;51.284;7.226;2022-07-10T03:10:47;18.10;93.70
21950;DHT22;11139;51.284;7.226;2022-07-10T03:13:12;18.10;93.80
21950;DHT22;11139;51.284;7.226;2022-07-10T03:15:38;18.10;93.80
21950;DHT22;11139;51.284;7.226;2022-07-10T03:18:09;18.10;93.80
21950;DHT22;11139;51.284;7.226;2022-07-10T03:20:35;18.20;93.80
21950;DHT22;11139;51.284;7.226;2022-07-10T03:23:04;18.10;93.80
21950;DHT22;11139;51.284;7.226;2022-07-10T03:25:38;18.10;93.80
21950;DHT22;11139;51.284;7.226;2022-07-10T03:28:06;18.10;93.90
21950;DHT22;11139;51.284;7.226;2022-07-10T03:30:35;18.10;93.90
21950;DHT22;11139;51.284;7.226;2022-07-10T03:33:00;18.10;93.90
21950;DHT22;11139;51.284;7.226;2022-07-10T03:35:29;18.10;93.90
21950;DHT22;11139;51.284;7.226;2022-07-10T03:38:00;18.10;93.90
21950;DHT22;11139;51.284;7.226;2022-07-10T03:40:25;18.00;93.80
21950;DHT22;11139;51.284;7.226;2022-07-10T03:42:51;18.00;93.90
21950;DHT22;11139;51.284;7.226;2022-07-10T03:45:17;18.00;93.90
21950;DHT22;11139;51.284;7.226;2022-07-10T03:47:43;18.00;93.90
21950;DHT22;11139;51.284;7.226;2022-07-10T03:50:08;18.00;93.90
21950;DHT22;11139;51.284;7.226;2022-07-10T03:52:34;18.00;93.90
21950;DHT22;11139;51.284;7.226;2022-07-10T03:55:00;18.10;94.00
21950;DHT22;11139;51.284;7.226;2022-07-10T03:57:29;18.00;93.90
21950;DHT22;11139;51.284;7.226;2022-07-10T04:00:22;18.00;93.90
21950;DHT22;11139;51.284;7.226;2022-07-10T04:02:55;18.00;93.90
21950;DHT22;11139;51.284;7.226;2022-07-10T04:05:29;18.00;93.90
21950;DHT22;11139;51.284;7.226;2022-07-10T04:07:56;18.00;94.00
21950;DHT22;11139;51.284;7.226;2022-07-10T04:10:32;18.00;94.00
21950;DHT22;11139;51.284;7.226;2022-07-10T04:13:01;18.00;93.90
21950;DHT22;11139;51.284;7.226;2022-07-10T04:15:26;17.90;93.80
21950;DHT22;11139;51.284;7.226;2022-07-10T04:17:52;18.00;94.00
21950;DHT22;11139;51.284;7.226;2022-07-10T04:20:39;17.90;93.90
21950;DHT22;11139;51.284;7.226;2022-07-10T04:23:03;17.90;93.90
21950;DHT22;11139;51.284;7.226;2022-07-10T04:25:37;17.90;93.90
21950;DHT22;11139;51.284;7.226;2022-07-10T04:28:02;17.90;93.90
21950;DHT22;11139;51.284;7.226;2022-07-10T04:30:46;17.90;93.90
21950;DHT22;11139;51.284;7.226;2022-07-10T04:33:17;17.90;94.00
21950;DHT22;11139;51.284;7.226;2022-07-10T04:35:46;17.90;94.00
21950;DHT22;11139;51.284;7.226;2022-07-10T04:38:12;17.90;94.00
21950;DHT22;11139;51.284;7.226;2022-07-10T04:40:37;17.90;94.10
21950;DHT22;11139;51.284;7.226;2022-07-10T04:43:03;17.90;94.10
21950;DHT22;11139;51.284;7.226;2022-07-10T04:45:34;17.80;94.00
21950;DHT22;11139;51.284;7.226;2022-07-10T04:48:04;17.80;94.00
21950;DHT22;11139;51.284;7.226;2022-07-10T04:50:32;17.80;94.00
21950;DHT22;11139;51.284;7.226;2022-07-10T04:53:08;17.80;94.00
21950;DHT22;11139;51.284;7.226;2022-07-10T04:55:37;17.80;93.90
21950;DHT22;11139;51.284;7.226;2022-07-10T04:58:07;17.80;94.00
21950;DHT22;11139;51.284;7.226;2022-07-10T05:00:45;17.80;94.00
21950;DHT22;11139;51.284;7.226;2022-07-10T05:03:13;17.80;94.00
21950;DHT22;11139;51.284;7.226;2022-07-10T05:05:41;17.80;94.10
21950;DHT22;11139;51.284;7.226;2022-07-10T05:08:16;17.80;94.00
21950;DHT22;11139;51.284;7.226;2022-07-10T05:10:41;17.80;94.10
21950;DHT22;11139;51.284;7.226;2022-07-10T05:13:10;17.80;94.10
21950;DHT22;11139;51.284;7.226;2022-07-10T05:15:39;17.80;94.10
21950;DHT22;11139;51.284;7.226;2022-07-10T05:18:07;17.70;94.10
21950;DHT22;11139;51.284;7.226;2022-07-10T05:20:32;17.70;94.10
21950;DHT22;11139;51.284;7.226;2022-07-10T05:22:59;17.70;94.10
21950;DHT22;11139;51.284;7.226;2022-07-10T05:25:25;17.70;94.10
21950;DHT22;11139;51.284;7.226;2022-07-10T05:27:51;17.70;94.10
21950;DHT22;11139;51.284;7.226;2022-07-10T05:30:17;17.70;94.10
21950;DHT22;11139;51.284;7.226;2022-07-10T05:32:46;17.70;94.20
21950;DHT22;11139;51.284;7.226;2022-07-10T05:35:14;17.70;94.30
21950;DHT22;11139;51.284;7.226;2022-07-10T05:37:40;17.70;94.10
21950;DHT22;11139;51.284;7.226;2022-07-10T05:40:06;17.70;94.10
21950;DHT22;11139;51.284;7.226;2022-07-10T05:42:32;17.70;94.10
21950;DHT22;11139;51.284;7.226;2022-07-10T05:44:58;17.70;94.20
21950;DHT22;11139;51.284;7.226;2022-07-10T05:47:24;17.70;94.20
21950;DHT22;11139;51.284;7.226;2022-07-10T05:49:52;17.60;94.20
21950;DHT22;11139;51.284;7.226;2022-07-10T05:52:24;17.70;94.20
21950;DHT22;11139;51.284;7.226;2022-07-10T05:54:55;17.60;94.20
21950;DHT22;11139;51.284;7.226;2022-07-10T05:57:20;17.60;94.20
21950;DHT22;11139;51.284;7.226;2022-07-10T05:59:46;17.70;94.20
21950;DHT22;11139;51.284;7.226;2022-07-10T06:02:12;17.70;94.20
21950;DHT22;11139;51.284;7.226;2022-07-10T06:04:40;17.60;94.20
21950;DHT22;11139;51.284;7.226;2022-07-10T06:07:05;17.60;94.20
21950;DHT22;11139;51.284;7.226;2022-07-10T06:09:31;17.60;94.20
21950;DHT22;11139;51.284;7.226;2022-07-10T06:11:56;17.60;94.20
21950;DHT22;11139;51.284;7.226;2022-07-10T06:14:22;17.60;94.20
21950;DHT22;11139;51.284;7.226;2022-07-10T06:16:47;17.60;94.30
21950;DHT22;11139;51.284;7.226;2022-07-10T06:19:13;17.60;94.30
21950;DHT22;11139;51.284;7.226;2022-07-10T06:21:38;17.50;94.20
21950;DHT22;11139;51.284;7.226;2022-07-10T06:24:04;17.60;94.20
21950;DHT22;11139;51.284;7.226;2022-07-10T06:26:29;17.60;94.20
21950;DHT22;11139;51.284;7.226;2022-07-10T06:28:55;17.50;94.20
21950;DHT22;11139;51.284;7.226;2022-07-10T06:31:20;17.60;94.20
21950;DHT22;11139;51.284;7.226;2022-07-10T06:33:46;17.50;94.20
21950;DHT22;11139;51.284;7.226;2022-07-10T06:36:11;17.50;94.30
21950;DHT22;11139;51.284;7.226;2022-07-10T06:38:37;17.50;94.30
21950;DHT22;11139;51.284;7.226;2022-07-10T06:41:03;17.50;94.30
21950;DHT22;11139;51.284;7.226;2022-07-10T06:43:29;17.50;94.30
21950;DHT22;11139;51.284;7.226;2022-07-10T06:45:54;17.50;94.30
21950;DHT22;11139;51.284;7.226;2022-07-10T06:48:20;17.50;94.40
21950;DHT22;11139;51.284;7.226;2022-07-10T06:50:46;17.50;94.30
21950;DHT22;11139;51.284;7.226;2022-07-10T06:53:11;17.50;94.40
21950;DHT22;11139;51.284;7.226;2022-07-10T06:55:37;17.50;94.30
21950;DHT22;11139;51.284;7.226;2022-07-10T06:58:02;17.50;94.20
21950;DHT22;11139;51.284;7.226;2022-07-10T07:00:28;17.40;94.20
21950;DHT22;11139;51.284;7.226;2022-07-10T07:02:54;17.50;94.20
21950;DHT22;11139;51.284;7.226;2022-07-10T07:05:20;17.40;94.20
21950;DHT22;11139;51.284;7.226;2022-07-10T07:07:45;17.40;94.20
21950;DHT22;11139;51.284;7.226;2022-07-10T07:10:11;17.40;94.10
21950;DHT22;11139;51.284;7.226;2022-07-10T07:12:37;17.40;94.20
21950;DHT22;11139;51.284;7.226;2022-07-10T07:15:03;17.40;94.20
21950;DHT22;11139;51.284;7.226;2022-07-10T07:17:28;17.40;94.10
21950;DHT22;11139;51.284;7.226;2022-07-10T07:20:11;17.40;94.10
21950;DHT22;11139;51.284;7.226;2022-07-10T07:22:55;17.40;94.20
21950;DHT22;11139;51.284;7.226;2022-07-10T07:25:37;17.40;94.20
21950;DHT22;11139;51.284;7.226;2022-07-10T07:28:05;17.40;94.10
21950;DHT22;11139;51.284;7.226;2022-07-10T07:30:31;17.40;94.50
21950;DHT22;11139;51.284;7.226;2022-07-10T07:32:56;17.40;94.20
21950;DHT22;11139;51.284;7.226;2022-07-10T07:35:22;17.40;94.10
21950;DHT22;11139;51.284;7.226;2022-07-10T07:37:48;17.40;94.20
21950;DHT22;11139;51.284;7.226;2022-07-10T07:40:15;17.40;94.20
21950;DHT22;11139;51.284;7.226;2022-07-10T07:42:41;17.40;94.20
21950;DHT22;11139;51.284;7.226;2022-07-10T07:45:07;17.40;94.30
21950;DHT22;11139;51.284;7.226;2022-07-10T07:47:46;17.30;94.20
21950;DHT22;11139;51.284;7.226;2022-07-10T07:50:12;17.40;94.20
21950;DHT22;11139;51.284;7.226;2022-07-10T07:52:38;17.30;94.20
21950;DHT22;11139;51.284;7.226;2022-07-10T07:55:04;17.40;94.20
21950;DHT22;11139;51.284;7.226;2022-07-10T07:57:30;17.30;94.20
21950;DHT22;11139;51.284;7.226;2022-07-10T07:59:55;17.30;94.30
21950;DHT22;11139;51.284;7.226;2022-07-10T08:02:20;17.30;94.30
21950;DHT22;11139;51.284;7.226;2022-07-10T08:04:47;17.30;94.40
21950;DHT22;11139;51.284;7.226;2022-07-10T08:07:13;17.30;94.40
21950;DHT22;11139;51.284;7.226;2022-07-10T08:09:38;17.30;94.40
21950;DHT22;11139;51.284;7.226;2022-07-10T08:12:04;17.30;94.40
21950;DHT22;11139;51.284;7.226;2022-07-10T08:14:29;17.30;94.50
21950;DHT22;11139;51.284;7.226;2022-07-10T08:16:55;17.30;94.50
21950;DHT22;11139;51.284;7.226;2022-07-10T08:19:20;17.30;94.50
21950;DHT22;11139;51.284;7.226;2022-07-10T08:21:46;17.20;94.50
21950;DHT22;11139;51.284;7.226;2022-07-10T08:24:11;17.30;94.50
21950;DHT22;11139;51.284;7.226;2022-07-10T08:26:37;17.30;94.50
21950;DHT22;11139;51.284;7.226;2022-07-10T08:29:02;17.30;94.50
21950;DHT22;11139;51.284;7.226;2022-07-10T08:31:28;17.20;94.50
21950;DHT22;11139;51.284;7.226;2022-07-10T08:33:53;17.20;94.60
21950;DHT22;11139;51.284;7.226;2022-07-10T08:36:19;17.20;95.00
21950;DHT22;11139;51.284;7.226;2022-07-10T08:38:44;17.20;94.60
21950;DHT22;11139;51.284;7.226;2022-07-10T08:41:10;17.20;94.70
21950;DHT22;11139;51.284;7.226;2022-07-10T08:43:36;17.20;94.70
21950;DHT22;11139;51.284;7.226;2022-07-10T08:46:02;17.20;94.70
21950;DHT22;11139;51.284;7.226;2022-07-10T08:48:28;17.20;94.70
21950;DHT22;11139;51.284;7.226;2022-07-10T08:50:56;17.20;94.80
21950;DHT22;11139;51.284;7.226;2022-07-10T08:55:51;17.20;94.90
21950;DHT22;11139;51.284;7.226;2022-07-10T08:58:16;17.20;95.00
21950;DHT22;11139;51.284;7.226;2022-07-10T09:00:43;17.20;95.00
21950;DHT22;11139;51.284;7.226;2022-07-10T09:03:09;17.20;95.00
21950;DHT22;11139;51.284;7.226;2022-07-10T09:05:34;17.20;95.10
21950;DHT22;11139;51.284;7.226;2022-07-10T09:08:03;17.20;95.00
21950;DHT22;11139;51.284;7.226;2022-07-10T09:10:38;17.20;95.00
21950;DHT22;11139;51.284;7.226;2022-07-10T09:13:06;17.20;95.00
21950;DHT22;11139;51.284;7.226;2022-07-10T09:15:34;17.20;95.10
21950;DHT22;11139;51.284;7.226;2022-07-10T09:18:01;17.20;95.10
21950;DHT22;11139;51.284;7.226;2022-07-10T09:20:39;17.20;95.30
21950;DHT22;11139;51.284;7.226;2022-07-10T09:25:43;17.10;95.60
21950;DHT22;11139;51.284;7.226;2022-07-10T09:28:12;17.10;95.60
21950;DHT22;11139;51.284;7.226;2022-07-10T09:30:39;17.10;95.50
21950;DHT22;11139;51.284;7.226;2022-07-10T09:33:20;17.20;95.60
21950;DHT22;11139;51.284;7.226;2022-07-10T09:38:47;17.10;95.70
21950;DHT22;11139;51.284;7.226;2022-07-10T09:41:28;17.10;95.60
21950;DHT22;11139;51.284;7.226;2022-07-10T09:46:28;17.20;95.90
21950;DHT22;11139;51.284;7.226;2022-07-10T09:49:16;17.20;95.90
21950;DHT22;11139;51.284;7.226;2022-07-10T09:51:45;17.10;95.90
21950;DHT22;11139;51.284;7.226;2022-07-10T09:54:17;17.20;95.80
21950;DHT22;11139;51.284;7.226;2022-07-10T09:56:56;17.10;95.70
21950;DHT22;11139;51.284;7.226;2022-07-10T09:59:43;17.10;96.00
21950;DHT22;11139;51.284;7.226;2022-07-10T10:02:22;17.10;96.10
21950;DHT22;11139;51.284;7.226;2022-07-10T10:04:51;17.10;96.00
21950;DHT22;11139;51.284;7.226;2022-07-10T10:07:26;17.10;95.90
21950;DHT22;11139;51.284;7.226;2022-07-10T10:10:15;17.20;95.90
21950;DHT22;11139;51.284;7.226;2022-07-10T10:12:48;17.10;96.20
21950;DHT22;11139;51.284;7.226;2022-07-10T10:15:24;17.10;96.40
21950;DHT22;11139;51.284;7.226;2022-07-10T10:17:49;17.10;96.30
21950;DHT22;11139;51.284;7.226;2022-07-10T10:20:23;17.10;96.30
21950;DHT22;11139;51.284;7.226;2022-07-10T10:23:24;17.10;96.20
21950;DHT22;11139;51.284;7.226;2022-07-10T10:25:56;17.10;96.40
21950;DHT22;11139;51.284;7.226;2022-07-10T10:28:28;17.10;96.30
21950;DHT22;11139;51.284;7.226;2022-07-10T10:30:55;17.10;96.30
21950;DHT22;11139;51.284;7.226;2022-07-10T10:36:42;17.10;96.60
21950;DHT22;11139;51.284;7.226;2022-07-10T10:39:11;17.10;96.30
21950;DHT22;11139;51.284;7.226;2022-07-10T10:44:23;17.00;98.50
21950;DHT22;11139;51.284;7.226;2022-07-10T10:52:24;17.00;98.30
21950;DHT22;11139;51.284;7.226;2022-07-10T10:55:08;17.00;98.00
21950;DHT22;11139;51.284;7.226;2022-07-10T10:57:34;17.00;97.90
21950;DHT22;11139;51.284;7.226;2022-07-10T11:00:14;17.00;97.90
21950;DHT22;11139;51.284;7.226;2022-07-10T11:02:46;17.00;97.70
21950;DHT22;11139;51.284;7.226;2022-07-10T11:10:40;17.00;98.30
21950;DHT22;11139;51.284;7.226;2022-07-10T11:15:33;17.00;97.70
21950;DHT22;11139;51.284;7.226;2022-07-10T11:20:54;17.10;97.70
21950;DHT22;11139;51.284;7.226;2022-07-10T11:25:57;17.00;97.50
21950;DHT22;11139;51.284;7.226;2022-07-10T11:31:08;17.00;97.30
21950;DHT22;11139;51.284;7.226;2022-07-10T11:33:49;17.00;97.20
21950;DHT22;11139;51.284;7.226;2022-07-10T11:36:28;17.00;97.30
21950;DHT22;11139;51.284;7.226;2022-07-10T11:39:06;17.10;97.40
21950;DHT22;11139;51.284;7.226;2022-07-10T11:41:33;17.00;97.40
21950;DHT22;11139;51.284;7.226;2022-07-10T11:43:59;17.00;97.30
21950;DHT22;11139;51.284;7.226;2022-07-10T11:46:37;17.00;97.30
21950;DHT22;11139;51.284;7.226;2022-07-10T11:49:07;17.00;97.30
21950;DHT22;11139;51.284;7.226;2022-07-10T11:51:53;17.10;97.30
21950;DHT22;11139;51.284;7.226;2022-07-10T11:54:21;17.00;97.20
21950;DHT22;11139;51.284;7.226;2022-07-10T11:56:51;17.00;97.20
21950;DHT22;11139;51.284;7.226;2022-07-10T12:02:26;17.00;97.30
21950;DHT22;11139;51.284;7.226;2022-07-10T12:04:52;17.00;97.30
21950;DHT22;11139;51.284;7.226;2022-07-10T12:07:26;17.10;97.30
21950;DHT22;11139;51.284;7.226;2022-07-10T12:10:02;17.00;97.20
21950;DHT22;11139;51.284;7.226;2022-07-10T12:15:37;17.00;97.20
21950;DHT22;11139;51.284;7.226;2022-07-10T12:18:08;17.00;97.20
21950;DHT22;11139;51.284;7.226;2022-07-10T12:20:57;17.10;97.30
21950;DHT22;11139;51.284;7.226;2022-07-10T12:29:38;17.00;97.30
21950;DHT22;11139;51.284;7.226;2022-07-10T12:32:07;17.00;97.40
21950;DHT22;11139;51.284;7.226;2022-07-10T12:34:39;17.10;97.40
21950;DHT22;11139;51.284;7.226;2022-07-10T12:37:12;17.00;97.40
21950;DHT22;11139;51.284;7.226;2022-07-10T12:39:45;17.10;97.50
21950;DHT22;11139;51.284;7.226;2022-07-10T12:42:11;17.10;97.70
21950;DHT22;11139;51.284;7.226;2022-07-10T12:44:40;17.00;97.60
21950;DHT22;11139;51.284;7.226;2022-07-10T12:47:10;17.10;98.00
21950;DHT22;11139;51.284;7.226;2022-07-10T12:49:55;17.00;97.50
21950;DHT22;11139;51.284;7.226;2022-07-10T12:52:35;17.10;97.90
21950;DHT22;11139;51.284;7.226;2022-07-10T12:58:03;17.00;98.10
21950;DHT22;11139;51.284;7.226;2022-07-10T13:00:33;17.00;97.90
21950;DHT22;11139;51.284;7.226;2022-07-10T13:03:08;17.00;97.90
21950;DHT22;11139;51.284;7.226;2022-07-10T13:05:42;17.00;98.10
21950;DHT22;11139;51.284;7.226;2022-07-10T13:10:49;17.00;98.40
21950;DHT22;11139;51.284;7.226;2022-07-10T13:13:30;17.00;98.20
21950;DHT22;11139;51.284;7.226;2022-07-10T13:15:56;17.00;98.30
21950;DHT22;11139;51.284;7.226;2022-07-10T13:18:23;17.00;98.30
21950;DHT22;11139;51.284;7.226;2022-07-10T13:23:32;17.00;98.40
21950;DHT22;11139;51.284;7.226;2022-07-10T13:25:58;17.00;98.40
21950;DHT22;11139;51.284;7.226;2022-07-10T13:28:28;17.00;98.20
21950;DHT22;11139;51.284;7.226;2022-07-10T13:30:57;17.00;98.30
21950;DHT22;11139;51.284;7.226;2022-07-10T13:33:25;17.00;98.30
21950;DHT22;11139;51.284;7.226;2022-07-10T13:35:59;17.00;98.40
21950;DHT22;11139;51.284;7.226;2022-07-10T13:38:24;17.00;98.70
21950;DHT22;11139;51.284;7.226;2022-07-10T13:40:50;17.00;98.60
21950;DHT22;11139;51.284;7.226;2022-07-10T13:43:16;17.10;99.00
21950;DHT22;11139;51.284;7.226;2022-07-10T13:46:03;17.00;99.50
21950;DHT22;11139;51.284;7.226;2022-07-10T13:48:37;17.10;99.90
21950;DHT22;11139;51.284;7.226;2022-07-10T13:51:02;17.10;99.90
21950;DHT22;11139;51.284;7.226;2022-07-10T13:53:33;17.10;99.90
21950;DHT22;11139;51.284;7.226;2022-07-10T13:56:04;17.10;99.90
21950;DHT22;11139;51.284;7.226;2022-07-10T13:58:29;17.10;99.90
21950;DHT22;11139;51.284;7.226;2022-07-10T14:00:55;17.10;99.90
21950;DHT22;11139;51.284;7.226;2022-07-10T14:03:24;17.10;99.90
21950;DHT22;11139;51.284;7.226;2022-07-10T14:05:50;17.10;99.90
21950;DHT22;11139;51.284;7.226;2022-07-10T14:08:21;17.10;99.90
21950;DHT22;11139;51.284;7.226;2022-07-10T14:10:47;17.10;99.90
21950;DHT22;11139;51.284;7.226;2022-07-10T14:13:15;17.10;99.90
21950;DHT22;11139;51.284;7.226;2022-07-10T14:15:41;17.10;99.90
21950;DHT22;11139;51.284;7.226;2022-07-10T14:18:12;17.00;99.90
21950;DHT22;11139;51.284;7.226;2022-07-10T14:20:44;17.10;99.90
21950;DHT22;11139;51.284;7.226;2022-07-10T14:23:31;17.10;99.90
21950;DHT22;11139;51.284;7.226;2022-07-10T14:26:04;17.10;99.90
21950;DHT22;11139;51.284;7.226;2022-07-10T14:28:35;17.10;99.90
21950;DHT22;11139;51.284;7.226;2022-07-10T14:31:01;17.10;99.90
21950;DHT22;11139;51.284;7.226;2022-07-10T14:33:34;17.10;99.90
21950;DHT22;11139;51.284;7.226;2022-07-10T14:36:00;17.10;99.90
21950;DHT22;11139;51.284;7.226;2022-07-10T14:38:29;17.10;99.90
21950;DHT22;11139;51.284;7.226;2022-07-10T14:40:54;17.10;99.90
21950;DHT22;11139;51.284;7.226;2022-07-10T14:43:23;17.10;99.90
21950;DHT22;11139;51.284;7.226;2022-07-10T14:45:53;17.10;99.90
21950;DHT22;11139;51.284;7.226;2022-07-10T14:48:22;17.10;99.90
21950;DHT22;11139;51.284;7.226;2022-07-10T14:50:51;17.10;99.90
21950;DHT22;11139;51.284;7.226;2022-07-10T14:53:17;17.10;99.90
21950;DHT22;11139;51.284;7.226;2022-07-10T14:55:43;17.10;99.90
21950;DHT22;11139;51.284;7.226;2022-07-10T14:58:16;17.10;99.90
21950;DHT22;11139;51.284;7.226;2022-07-10T15:00:45;17.20;99.90
21950;DHT22;11139;51.284;7.226;2022-07-10T15:03:10;17.10;99.90
21950;DHT22;11139;51.284;7.226;2022-07-10T15:05:41;17.10;99.90
21950;DHT22;11139;51.284;7.226;2022-07-10T15:08:09;17.20;99.90
21950;DHT22;11139;51.284;7.226;2022-07-10T15:10:35;17.20;99.90
21950;DHT22;11139;51.284;7.226;2022-07-10T15:13:01;17.20;99.90
21950;DHT22;11139;51.284;7.226;2022-07-10T15:15:32;17.20;99.90
21950;DHT22;11139;51.284;7.226;2022-07-10T15:17:59;17.10;99.90
21950;DHT22;11139;51.284;7.226;2022-07-10T15:20:24;17.10;99.90
21950;DHT22;11139;51.284;7.226;2022-07-10T15:22:50;17.10;99.90
21950;DHT22;11139;51.284;7.226;2022-07-10T15:25:15;17.10;99.90
21950;DHT22;11139;51.284;7.226;2022-07-10T15:27:50;17.10;99.90
21950;DHT22;11139;51.284;7.226;2022-07-10T15:30:37;17.10;99.90
21950;DHT22;11139;51.284;7.226;2022-07-10T15:33:22;17.10;99.90
21950;DHT22;11139;51.284;7.226;2022-07-10T15:36:08;17.10;99.90
21950;DHT22;11139;51.284;7.226;2022-07-10T15:38:34;17.10;99.90
21950;DHT22;11139;51.284;7.226;2022-07-10T15:41:16;17.10;99.90
21950;DHT22;11139;51.284;7.226;2022-07-10T15:43:48;17.20;99.90
21950;DHT22;11139;51.284;7.226;2022-07-10T15:46:13;17.10;99.90
21950;DHT22;11139;51.284;7.226;2022-07-10T15:48:42;17.10;99.90
21950;DHT22;11139;51.284;7.226;2022-07-10T15:51:07;17.20;99.90
21950;DHT22;11139;51.284;7.226;2022-07-10T15:53:33;17.20;99.90
21950;DHT22;11139;51.284;7.226;2022-07-10T15:55:58;17.10;99.90
21950;DHT22;11139;51.284;7.226;2022-07-10T15:58:31;17.20;99.90
21950;DHT22;11139;51.284;7.226;2022-07-10T16:00:59;17.20;99.90
21950;DHT22;11139;51.284;7.226;2022-07-10T16:03:24;17.20;99.90
21950;DHT22;11139;51.284;7.226;2022-07-10T16:05:53;17.20;99.90
21950;DHT22;11139;51.284;7.226;2022-07-10T16:08:19;17.20;99.90
21950;DHT22;11139;51.284;7.226;2022-07-10T16:10:52;17.20;99.90
21950;DHT22;11139;51.284;7.226;2022-07-10T16:13:18;17.20;99.90
21950;DHT22;11139;51.284;7.226;2022-07-10T16:15:48;17.20;99.90
21950;DHT22;11139;51.284;7.226;2022-07-10T16:18:23;17.20;99.90
21950;DHT22;11139;51.284;7.226;2022-07-10T16:21:00;17.20;99.90
21950;DHT22;11139;51.284;7.226;2022-07-10T16:23:31;17.10;99.90
21950;DHT22;11139;51.284;7.226;2022-07-10T16:26:05;17.20;99.90
21950;DHT22;11139;51.284;7.226;2022-07-10T16:28:41;17.20;99.90
21950;DHT22;11139;51.284;7.226;2022-07-10T16:31:16;17.20;99.90
21950;DHT22;11139;51.284;7.226;2022-07-10T16:33:41;17.20;99.90
21950;DHT22;11139;51.284;7.226;2022-07-10T16:36:08;17.20;99.90
21950;DHT22;11139;51.284;7.226;2022-07-10T16:38:37;17.20;99.90
21950;DHT22;11139;51.284;7.226;2022-07-10T16:41:03;17.20;99.90
21950;DHT22;11139;51.284;7.226;2022-07-10T16:43:36;17.20;99.90
21950;DHT22;11139;51.284;7.226;2022-07-10T16:46:02;17.20;99.90
21950;DHT22;11139;51.284;7.226;2022-07-10T16:48:31;17.20;99.90
21950;DHT22;11139;51.284;7.226;2022-07-10T16:50:59;17.20;99.90
21950;DHT22;11139;51.284;7.226;2022-07-10T16:53:31;17.20;99.90
21950;DHT22;11139;51.284;7.226;2022-07-10T16:55:59;17.20;99.90
21950;DHT22;11139;51.284;7.226;2022-07-10T16:58:24;17.20;99.90
21950;DHT22;11139;51.284;7.226;2022-07-10T17:00:55;17.20;99.90
21950;DHT22;11139;51.284;7.226;2022-07-10T17:03:23;17.20;99.90
21950;DHT22;11139;51.284;7.226;2022-07-10T17:05:49;17.20;99.90
21950;DHT22;11139;51.284;7.226;2022-07-10T17:08:18;17.20;99.90
21950;DHT22;11139;51.284;7.226;2022-07-10T17:10:43;17.20;99.90
21950;DHT22;11139;51.284;7.226;2022-07-10T17:13:14;17.20;99.90
21950;DHT22;11139;51.284;7.226;2022-07-10T17:15:40;17.20;99.90
21950;DHT22;11139;51.284;7.226;2022-07-10T17:18:13;17.20;99.90
21950;DHT22;11139;51.284;7.226;2022-07-10T17:20:41;17.20;99.90
21950;DHT22;11139;51.284;7.226;2022-07-10T17:23:12;17.20;99.90
21950;DHT22;11139;51.284;7.226;2022-07-10T17:25:38;17.20;99.90
21950;DHT22;11139;51.284;7.226;2022-07-10T17:28:06;17.20;99.90